sensor_id;sensor_type;location;lat;lon;timestamp;pressure;altitude;pressure_sealevel;temperature;humidity
20955;BME280;10636;19.390;-99.256;2022-12-18T00:00:25;77677.22;;;24.29;27.38
20955;BME280;10636;19.390;-99.256;2022-12-18T00:02:54;77677.84;;;24.27;27.75
20955;BME280;10636;19.390;-99.256;2022-12-18T00:05:23;77677.78;;;24.25;27.71
20955;BME280;10636;19.390;-99.256;2022-12-18T00:07:51;77687.72;;;24.23;27.17
20955;BME280;10636;19.390;-99.256;2022-12-18T00:10:20;77697.69;;;24.20;27.66
20955;BME280;10636;19.390;-99.256;2022-12-18T00:12:48;77697.59;;;24.18;27.79
20955;BME280;10636;19.390;-99.256;2022-12-18T00:15:18;77692.19;;;24.16;27.01
20955;BME280;10636;19.390;-99.256;2022-12-18T00:17:47;77703.59;;;24.17;27.50
20955;BME280;10636;19.390;-99.256;2022-12-18T00:20:15;77697.59;;;24.18;27.54
20955;BME280;10636;19.390;-99.256;2022-12-18T00:22:48;77698.38;;;24.21;27.91
20955;BME280;10636;19.390;-99.256;2022-12-18T00:25:16;77686.13;;;24.16;27.75
20955;BME280;10636;19.390;-99.256;2022-12-18T00:27:45;77707.09;;;24.21;27.65
20955;BME280;10636;19.390;-99.256;2022-12-18T00:30:13;77690.72;;;24.13;27.52
20955;BME280;10636;19.390;-99.256;2022-12-18T00:32:44;77700.38;;;24.20;28.29
20955;BME280;10636;19.390;-99.256;2022-12-18T00:35:12;77707.09;;;24.21;27.99
20955;BME280;10636;19.390;-99.256;2022-12-18T00:37:41;77710.47;;;24.22;27.92
20955;BME280;10636;19.390;-99.256;2022-12-18T00:40:10;77704.13;;;24.13;27.95
20955;BME280;10636;19.390;-99.256;2022-12-18T00:42:39;77719.13;;;24.20;28.14
20955;BME280;10636;19.390;-99.256;2022-12-18T00:45:25;77735.13;;;24.18;27.98
20955;BME280;10636;19.390;-99.256;2022-12-18T00:47:55;77743.78;;;24.17;28.31
20955;BME280;10636;19.390;-99.256;2022-12-18T00:50:25;77753.88;;;24.18;28.43
20955;BME280;10636;19.390;-99.256;2022-12-18T00:52:53;77761.91;;;24.18;28.66
20955;BME280;10636;19.390;-99.256;2022-12-18T00:55:22;77763.28;;;24.19;28.76
20955;BME280;10636;19.390;-99.256;2022-12-18T00:57:51;77773.31;;;24.19;28.40
20955;BME280;10636;19.390;-99.256;2022-12-18T01:00:20;77767.28;;;24.18;29.08
20955;BME280;10636;19.390;-99.256;2022-12-18T01:02:48;77761.69;;;24.12;28.70
20955;BME280;10636;19.390;-99.256;2022-12-18T01:05:19;77761.38;;;24.04;28.52
20955;BME280;10636;19.390;-99.256;2022-12-18T01:07:47;77776.63;;;24.17;28.47
20955;BME280;10636;19.390;-99.256;2022-12-18T01:10:16;77786.03;;;24.18;28.49
20955;BME280;10636;19.390;-99.256;2022-12-18T01:12:45;77784.59;;;24.15;29.24
20955;BME280;10636;19.390;-99.256;2022-12-18T01:15:14;77795.31;;;24.15;29.03
20955;BME280;10636;19.390;-99.256;2022-12-18T01:17:43;77802.63;;;24.15;28.69
20955;BME280;10636;19.390;-99.256;2022-12-18T01:20:12;77805.88;;;24.11;29.37
20955;BME280;10636;19.390;-99.256;2022-12-18T01:22:42;77797.97;;;23.97;28.86
20955;BME280;10636;19.390;-99.256;2022-12-18T01:25:13;77822.63;;;24.12;29.42
20955;BME280;10636;19.390;-99.256;2022-12-18T01:27:42;77829.34;;;24.13;29.45
20955;BME280;10636;19.390;-99.256;2022-12-18T01:30:11;77827.97;;;24.12;28.85
20955;BME280;10636;19.390;-99.256;2022-12-18T01:32:39;77826.00;;;24.12;28.92
20955;BME280;10636;19.390;-99.256;2022-12-18T01:35:08;77826.00;;;24.12;28.90
20955;BME280;10636;19.390;-99.256;2022-12-18T01:37:37;77832.66;;;24.11;29.51
20955;BME280;10636;19.390;-99.256;2022-12-18T01:40:11;77843.38;;;24.11;29.22
20955;BME280;10636;19.390;-99.256;2022-12-18T01:42:39;77838.00;;;24.11;29.41
20955;BME280;10636;19.390;-99.256;2022-12-18T01:45:24;77836.63;;;24.10;29.71
20955;BME280;10636;19.390;-99.256;2022-12-18T01:47:55;77844.69;;;24.10;30.13
20955;BME280;10636;19.390;-99.256;2022-12-18T01:50:27;77854.09;;;24.11;29.81
20955;BME280;10636;19.390;-99.256;2022-12-18T01:52:59;77857.91;;;24.06;30.01
20955;BME280;10636;19.390;-99.256;2022-12-18T01:55:32;77866.81;;;24.11;30.36
20955;BME280;10636;19.390;-99.256;2022-12-18T01:58:03;77845.19;;;23.89;30.11
20955;BME280;10636;19.390;-99.256;2022-12-18T02:00:32;77865.72;;;24.00;30.18
20955;BME280;10636;19.390;-99.256;2022-12-18T02:03:01;77870.84;;;24.12;30.40
20955;BME280;10636;19.390;-99.256;2022-12-18T02:05:40;77875.53;;;24.11;29.92
20955;BME280;10636;19.390;-99.256;2022-12-18T02:08:13;77876.81;;;24.10;30.75
20955;BME280;10636;19.390;-99.256;2022-12-18T02:10:56;77884.88;;;24.10;30.72
20955;BME280;10636;19.390;-99.256;2022-12-18T02:13:34;77890.91;;;24.11;30.17
20955;BME280;10636;19.390;-99.256;2022-12-18T02:16:09;77895.59;;;24.10;30.44
20955;BME280;10636;19.390;-99.256;2022-12-18T02:18:44;77907.00;;;24.11;30.41
20955;BME280;10636;19.390;-99.256;2022-12-18T02:21:22;77905.00;;;24.11;30.99
20955;BME280;10636;19.390;-99.256;2022-12-18T02:24:02;77896.28;;;24.11;31.10
20955;BME280;10636;19.390;-99.256;2022-12-18T02:26:40;77898.25;;;24.10;30.35
20955;BME280;10636;19.390;-99.256;2022-12-18T02:29:15;77900.94;;;24.10;30.36
20955;BME280;10636;19.390;-99.256;2022-12-18T02:31:47;77913.03;;;24.11;30.41
20955;BME280;10636;19.390;-99.256;2022-12-18T02:34:18;77890.72;;;23.89;30.63
20955;BME280;10636;19.390;-99.256;2022-12-18T02:36:48;77922.38;;;24.10;31.08
20955;BME280;10636;19.390;-99.256;2022-12-18T02:39:19;77921.06;;;24.11;30.92
20955;BME280;10636;19.390;-99.256;2022-12-18T02:41:51;77920.97;;;24.09;31.20
20955;BME280;10636;19.390;-99.256;2022-12-18T02:44:19;77926.25;;;24.07;30.71
20955;BME280;10636;19.390;-99.256;2022-12-18T02:46:51;77926.19;;;24.05;31.19
20955;BME280;10636;19.390;-99.256;2022-12-18T02:49:30;77926.94;;;24.08;31.35
20955;BME280;10636;19.390;-99.256;2022-12-18T02:52:06;77923.59;;;24.07;30.94
20955;BME280;10636;19.390;-99.256;2022-12-18T02:54:53;77930.25;;;24.06;31.50
20955;BME280;10636;19.390;-99.256;2022-12-18T02:57:33;77939.59;;;24.05;31.72
20955;BME280;10636;19.390;-99.256;2022-12-18T03:00:06;77938.28;;;24.06;31.83
20955;BME280;10636;19.390;-99.256;2022-12-18T03:02:41;77938.28;;;24.06;31.30
20955;BME280;10636;19.390;-99.256;2022-12-18T03:05:16;77940.88;;;24.04;31.80
20955;BME280;10636;19.390;-99.256;2022-12-18T03:07:48;77939.50;;;24.03;31.75
20955;BME280;10636;19.390;-99.256;2022-12-18T03:10:23;77949.53;;;24.03;31.17
20955;BME280;10636;19.390;-99.256;2022-12-18T03:12:58;77950.81;;;24.02;31.42
20955;BME280;10636;19.390;-99.256;2022-12-18T03:15:31;77954.19;;;24.02;31.82
20955;BME280;10636;19.390;-99.256;2022-12-18T03:18:06;77960.16;;;24.00;31.98
20955;BME280;10636;19.390;-99.256;2022-12-18T03:20:37;77963.53;;;24.01;32.08
20955;BME280;10636;19.390;-99.256;2022-12-18T03:23:09;77962.84;;;24.00;32.12
20955;BME280;10636;19.390;-99.256;2022-12-18T03:25:41;77968.78;;;23.99;31.68
20955;BME280;10636;19.390;-99.256;2022-12-18T03:28:14;77956.69;;;23.98;31.98
20955;BME280;10636;19.390;-99.256;2022-12-18T03:30:46;77970.09;;;23.98;31.73
20955;BME280;10636;19.390;-99.256;2022-12-18T03:33:18;77969.94;;;23.94;32.14
20955;BME280;10636;19.390;-99.256;2022-12-18T03:35:48;77972.69;;;23.96;32.50
20955;BME280;10636;19.390;-99.256;2022-12-18T03:38:16;77974.75;;;23.97;32.53
20955;BME280;10636;19.390;-99.256;2022-12-18T03:40:53;77973.22;;;23.92;32.69
20955;BME280;10636;19.390;-99.256;2022-12-18T03:43:33;77975.31;;;23.94;32.58
20955;BME280;10636;19.390;-99.256;2022-12-18T03:46:06;77976.00;;;23.94;32.67
20955;BME280;10636;19.390;-99.256;2022-12-18T03:48:39;77971.22;;;23.93;33.11
20955;BME280;10636;19.390;-99.256;2022-12-18T03:51:14;77975.31;;;23.94;32.72
20955;BME280;10636;19.390;-99.256;2022-12-18T03:53:51;77969.94;;;23.94;33.20
20955;BME280;10636;19.390;-99.256;2022-12-18T03:56:23;77983.25;;;23.92;33.02
20955;BME280;10636;19.390;-99.256;2022-12-18T03:58:55;77988.34;;;23.86;33.34
20955;BME280;10636;19.390;-99.256;2022-12-18T04:01:30;77974.63;;;23.78;33.08
20955;BME280;10636;19.390;-99.256;2022-12-18T04:04:00;77977.72;;;23.88;33.30
20955;BME280;10636;19.390;-99.256;2022-12-18T04:06:29;77969.34;;;23.80;32.94
20955;BME280;10636;19.390;-99.256;2022-12-18T04:08:58;77985.84;;;23.90;33.17
20955;BME280;10636;19.390;-99.256;2022-12-18T04:11:27;77978.41;;;23.88;32.99
20955;BME280;10636;19.390;-99.256;2022-12-18T04:13:58;77987.91;;;23.91;32.64
20955;BME280;10636;19.390;-99.256;2022-12-18T04:16:27;77980.31;;;23.86;32.54
20955;BME280;10636;19.390;-99.256;2022-12-18T04:18:55;77979.88;;;23.91;33.04
20955;BME280;10636;19.390;-99.256;2022-12-18T04:21:24;77985.91;;;23.92;33.37
20955;BME280;10636;19.390;-99.256;2022-12-18T04:23:52;77991.88;;;23.90;32.96
20955;BME280;10636;19.390;-99.256;2022-12-18T04:26:21;77993.88;;;23.90;32.91
20955;BME280;10636;19.390;-99.256;2022-12-18T04:28:50;77995.88;;;23.89;32.63
20955;BME280;10636;19.390;-99.256;2022-12-18T04:31:20;77985.66;;;23.86;33.11
20955;BME280;10636;19.390;-99.256;2022-12-18T04:33:48;77982.91;;;23.84;33.29
20955;BME280;10636;19.390;-99.256;2022-12-18T04:36:16;77988.28;;;23.84;33.06
20955;BME280;10636;19.390;-99.256;2022-12-18T04:38:45;77987.94;;;23.76;32.37
20955;BME280;10636;19.390;-99.256;2022-12-18T04:41:14;77994.84;;;23.81;32.86
20955;BME280;10636;19.390;-99.256;2022-12-18T04:43:42;77994.84;;;23.81;33.09
20955;BME280;10636;19.390;-99.256;2022-12-18T04:46:11;77998.81;;;23.80;32.40
20955;BME280;10636;19.390;-99.256;2022-12-18T04:48:41;77996.03;;;23.78;32.56
20955;BME280;10636;19.390;-99.256;2022-12-18T04:51:09;77996.03;;;23.78;32.98
20955;BME280;10636;19.390;-99.256;2022-12-18T04:53:38;77999.84;;;23.72;32.69
20955;BME280;10636;19.390;-99.256;2022-12-18T04:56:09;77980.66;;;23.62;32.61
20955;BME280;10636;19.390;-99.256;2022-12-18T04:58:39;77983.44;;;23.64;32.92
20955;BME280;10636;19.390;-99.256;2022-12-18T05:01:08;77989.13;;;23.72;32.97
20955;BME280;10636;19.390;-99.256;2022-12-18T05:03:38;77982.22;;;23.67;33.28
20955;BME280;10636;19.390;-99.256;2022-12-18T05:06:09;77993.28;;;23.76;32.99
20955;BME280;10636;19.390;-99.256;2022-12-18T05:08:37;77986.56;;;23.74;32.96
20955;BME280;10636;19.390;-99.256;2022-12-18T05:11:08;77989.13;;;23.72;32.74
20955;BME280;10636;19.390;-99.256;2022-12-18T05:13:37;77991.72;;;23.70;33.25
20955;BME280;10636;19.390;-99.256;2022-12-18T05:16:06;77989.75;;;23.71;33.15
20955;BME280;10636;19.390;-99.256;2022-12-18T05:18:35;77997.09;;;23.70;33.09
20955;BME280;10636;19.390;-99.256;2022-12-18T05:21:04;77989.66;;;23.69;33.45
20955;BME280;10636;19.390;-99.256;2022-12-18T05:23:34;77978.97;;;23.69;33.27
20955;BME280;10636;19.390;-99.256;2022-12-18T05:26:04;77985.69;;;23.70;32.51
20955;BME280;10636;19.390;-99.256;2022-12-18T05:28:33;77983.63;;;23.68;33.25
20955;BME280;10636;19.390;-99.256;2022-12-18T05:31:03;77984.91;;;23.67;32.69
20955;BME280;10636;19.390;-99.256;2022-12-18T05:33:33;77979.47;;;23.65;33.37
20955;BME280;10636;19.390;-99.256;2022-12-18T05:36:04;77988.81;;;23.64;32.77
20955;BME280;10636;19.390;-99.256;2022-12-18T05:38:36;77984.75;;;23.63;33.43
20955;BME280;10636;19.390;-99.256;2022-12-18T05:41:06;77986.03;;;23.62;33.25
20955;BME280;10636;19.390;-99.256;2022-12-18T05:43:36;77979.25;;;23.61;32.62
20955;BME280;10636;19.390;-99.256;2022-12-18T05:46:05;77983.25;;;23.60;32.82
20955;BME280;10636;19.390;-99.256;2022-12-18T05:48:34;77991.88;;;23.59;33.48
20955;BME280;10636;19.390;-99.256;2022-12-18T05:51:08;77993.78;;;23.56;33.58
20955;BME280;10636;19.390;-99.256;2022-12-18T05:53:38;77989.72;;;23.55;33.44
20955;BME280;10636;19.390;-99.256;2022-12-18T05:56:08;77983.00;;;23.54;32.77
20955;BME280;10636;19.390;-99.256;2022-12-18T05:58:37;77964.34;;;23.40;33.54
20955;BME280;10636;19.390;-99.256;2022-12-18T06:01:10;77959.16;;;23.44;33.12
20955;BME280;10636;19.390;-99.256;2022-12-18T06:03:39;77970.13;;;23.51;32.97
20955;BME280;10636;19.390;-99.256;2022-12-18T06:06:18;77980.13;;;23.50;33.70
20955;BME280;10636;19.390;-99.256;2022-12-18T06:08:49;77977.38;;;23.48;32.93
20955;BME280;10636;19.390;-99.256;2022-12-18T06:11:18;77969.97;;;23.46;33.74
20955;BME280;10636;19.390;-99.256;2022-12-18T06:13:50;77970.66;;;23.47;33.12
20955;BME280;10636;19.390;-99.256;2022-12-18T06:16:18;77973.34;;;23.47;33.69
20955;BME280;10636;19.390;-99.256;2022-12-18T06:18:47;77956.66;;;23.33;33.62
20955;BME280;10636;19.390;-99.256;2022-12-18T06:21:15;77971.84;;;23.44;33.22
20955;BME280;10636;19.390;-99.256;2022-12-18T06:23:44;77967.69;;;23.41;33.36
20955;BME280;10636;19.390;-99.256;2022-12-18T06:26:14;77958.41;;;23.42;33.29
20955;BME280;10636;19.390;-99.256;2022-12-18T06:28:43;77957.59;;;23.39;33.22
20955;BME280;10636;19.390;-99.256;2022-12-18T06:31:11;77954.25;;;23.39;34.02
20955;BME280;10636;19.390;-99.256;2022-12-18T06:33:40;77956.91;;;23.39;33.97
20955;BME280;10636;19.390;-99.256;2022-12-18T06:36:10;77953.56;;;23.38;33.24
20955;BME280;10636;19.390;-99.256;2022-12-18T06:38:42;77946.81;;;23.37;34.13
20955;BME280;10636;19.390;-99.256;2022-12-18T06:41:14;77939.50;;;23.38;33.51
20955;BME280;10636;19.390;-99.256;2022-12-18T06:43:42;77940.69;;;23.35;34.32
20955;BME280;10636;19.390;-99.256;2022-12-18T06:46:11;77935.94;;;23.33;33.83
20955;BME280;10636;19.390;-99.256;2022-12-18T06:48:40;77935.25;;;23.33;33.79
20955;BME280;10636;19.390;-99.256;2022-12-18T06:51:09;77938.53;;;23.31;34.20
20955;BME280;10636;19.390;-99.256;2022-12-18T06:53:37;77929.13;;;23.30;34.12
20955;BME280;10636;19.390;-99.256;2022-12-18T06:56:06;77937.84;;;23.31;34.18
20955;BME280;10636;19.390;-99.256;2022-12-18T06:58:37;77941.91;;;23.32;34.10
20955;BME280;10636;19.390;-99.256;2022-12-18T07:01:07;77943.09;;;23.29;33.86
20955;BME280;10636;19.390;-99.256;2022-12-18T07:03:36;77945.78;;;23.29;33.88
20955;BME280;10636;19.390;-99.256;2022-12-18T07:06:05;77947.78;;;23.28;34.42
20955;BME280;10636;19.390;-99.256;2022-12-18T07:08:36;77948.38;;;23.27;33.98
20955;BME280;10636;19.390;-99.256;2022-12-18T07:11:05;77941.56;;;23.23;34.62
20955;BME280;10636;19.390;-99.256;2022-12-18T07:13:33;77942.84;;;23.22;34.34
20955;BME280;10636;19.390;-99.256;2022-12-18T07:16:11;77947.50;;;23.22;34.50
20955;BME280;10636;19.390;-99.256;2022-12-18T07:18:39;77946.72;;;23.19;34.61
20955;BME280;10636;19.390;-99.256;2022-12-18T07:21:09;77942.78;;;23.20;34.83
20955;BME280;10636;19.390;-99.256;2022-12-18T07:23:37;77943.38;;;23.19;34.14
20955;BME280;10636;19.390;-99.256;2022-12-18T07:26:07;77935.94;;;23.17;34.63
20955;BME280;10636;19.390;-99.256;2022-12-18T07:28:37;77933.19;;;23.15;34.60
20955;BME280;10636;19.390;-99.256;2022-12-18T07:31:09;77937.16;;;23.14;34.67
20955;BME280;10636;19.390;-99.256;2022-12-18T07:33:38;77936.38;;;23.12;34.98
20955;BME280;10636;19.390;-99.256;2022-12-18T07:36:08;77938.44;;;23.13;34.27
20955;BME280;10636;19.390;-99.256;2022-12-18T07:38:37;77933.09;;;23.13;34.18
20955;BME280;10636;19.390;-99.256;2022-12-18T07:41:07;77923.00;;;23.12;35.12
20955;BME280;10636;19.390;-99.256;2022-12-18T07:43:36;77926.28;;;23.10;34.74
20955;BME280;10636;19.390;-99.256;2022-12-18T07:46:07;77924.88;;;23.09;34.87
20955;BME280;10636;19.390;-99.256;2022-12-18T07:48:36;77923.63;;;23.10;34.86
20955;BME280;10636;19.390;-99.256;2022-12-18T07:51:06;77916.88;;;23.09;34.90
20955;BME280;10636;19.390;-99.256;2022-12-18T07:53:35;77928.19;;;23.08;34.33
20955;BME280;10636;19.390;-99.256;2022-12-18T07:56:05;77926.13;;;23.06;34.31
20955;BME280;10636;19.390;-99.256;2022-12-18T07:58:36;77919.38;;;23.05;34.24
20955;BME280;10636;19.390;-99.256;2022-12-18T08:01:07;77916.03;;;23.05;34.96
20955;BME280;10636;19.390;-99.256;2022-12-18T08:03:36;77919.38;;;23.05;35.01
20955;BME280;10636;19.390;-99.256;2022-12-18T08:06:06;77917.97;;;23.04;34.25
20955;BME280;10636;19.390;-99.256;2022-12-18T08:08:36;77906.59;;;23.04;35.01
20955;BME280;10636;19.390;-99.256;2022-12-18T08:11:07;77901.16;;;23.02;34.86
20955;BME280;10636;19.390;-99.256;2022-12-18T08:13:35;77897.81;;;23.01;34.96
20955;BME280;10636;19.390;-99.256;2022-12-18T08:16:07;77900.47;;;23.01;34.34
20955;BME280;10636;19.390;-99.256;2022-12-18T08:18:36;77897.81;;;23.01;34.40
20955;BME280;10636;19.390;-99.256;2022-12-18T08:21:09;77899.00;;;22.98;34.65
20955;BME280;10636;19.390;-99.256;2022-12-18T08:23:37;77900.41;;;22.99;34.17
20955;BME280;10636;19.390;-99.256;2022-12-18T08:26:06;77886.94;;;22.97;34.47
20955;BME280;10636;19.390;-99.256;2022-12-18T08:28:34;77894.97;;;22.97;34.25
20955;BME280;10636;19.390;-99.256;2022-12-18T08:31:03;77886.84;;;22.95;34.31
20955;BME280;10636;19.390;-99.256;2022-12-18T08:33:34;77882.81;;;22.94;34.13
20955;BME280;10636;19.390;-99.256;2022-12-18T08:36:03;77884.09;;;22.93;34.75
20955;BME280;10636;19.390;-99.256;2022-12-18T08:38:32;77882.44;;;22.86;34.81
20955;BME280;10636;19.390;-99.256;2022-12-18T08:41:01;77889.97;;;22.89;34.74
20955;BME280;10636;19.390;-99.256;2022-12-18T08:43:31;77898.06;;;22.91;34.65
20955;BME280;10636;19.390;-99.256;2022-12-18T08:46:18;77889.34;;;22.91;34.03
20955;BME280;10636;19.390;-99.256;2022-12-18T08:48:50;77883.94;;;22.89;34.78
20955;BME280;10636;19.390;-99.256;2022-12-18T08:51:19;77892.44;;;22.85;34.01
20955;BME280;10636;19.390;-99.256;2022-12-18T08:53:48;77897.84;;;22.87;34.29
20955;BME280;10636;19.390;-99.256;2022-12-18T08:56:17;77900.66;;;22.89;34.07
20955;BME280;10636;19.390;-99.256;2022-12-18T08:58:45;77903.91;;;22.88;34.18
20955;BME280;10636;19.390;-99.256;2022-12-18T09:01:14;77906.59;;;22.88;34.17
20955;BME280;10636;19.390;-99.256;2022-12-18T09:03:45;77899.16;;;22.86;34.74
20955;BME280;10636;19.390;-99.256;2022-12-18T09:06:16;77901.81;;;22.86;34.63
20955;BME280;10636;19.390;-99.256;2022-12-18T09:08:45;77895.78;;;22.86;34.28
20955;BME280;10636;19.390;-99.256;2022-12-18T09:11:18;77899.84;;;22.87;34.12
20955;BME280;10636;19.390;-99.256;2022-12-18T09:13:47;77900.44;;;22.85;34.68
20955;BME280;10636;19.390;-99.256;2022-12-18T09:16:16;77903.75;;;22.84;33.97
20955;BME280;10636;19.390;-99.256;2022-12-18T09:18:45;77911.06;;;22.83;34.84
20955;BME280;10636;19.390;-99.256;2022-12-18T09:21:17;77903.63;;;22.82;34.57
20955;BME280;10636;19.390;-99.256;2022-12-18T09:23:49;77912.94;;;22.81;34.93
20955;BME280;10636;19.390;-99.256;2022-12-18T09:26:18;77902.25;;;22.81;34.04
20955;BME280;10636;19.390;-99.256;2022-12-18T09:28:46;77898.09;;;22.78;34.32
20955;BME280;10636;19.390;-99.256;2022-12-18T09:31:15;77902.75;;;22.77;34.37
20955;BME280;10636;19.390;-99.256;2022-12-18T09:33:44;77908.81;;;22.78;34.36
20955;BME280;10636;19.390;-99.256;2022-12-18T09:36:15;77893.09;;;22.70;34.35
20955;BME280;10636;19.390;-99.256;2022-12-18T09:38:44;77905.88;;;22.71;34.90
20955;BME280;10636;19.390;-99.256;2022-12-18T09:41:27;77911.22;;;22.71;34.05
20955;BME280;10636;19.390;-99.256;2022-12-18T09:44:01;77903.81;;;22.70;34.41
20955;BME280;10636;19.390;-99.256;2022-12-18T09:46:32;77905.88;;;22.71;34.56
20955;BME280;10636;19.390;-99.256;2022-12-18T09:49:04;77900.53;;;22.71;34.22
20955;BME280;10636;19.390;-99.256;2022-12-18T09:51:39;77900.53;;;22.71;34.88
20955;BME280;10636;19.390;-99.256;2022-12-18T09:54:13;77899.13;;;22.70;34.35
20955;BME280;10636;19.390;-99.256;2022-12-18T09:56:43;77909.75;;;22.68;34.34
20955;BME280;10636;19.390;-99.256;2022-12-18T09:59:26;77908.38;;;22.67;34.71
20955;BME280;10636;19.390;-99.256;2022-12-18T10:02:14;77906.97;;;22.66;34.09
20955;BME280;10636;19.390;-99.256;2022-12-18T10:04:43;77905.72;;;22.67;34.90
20955;BME280;10636;19.390;-99.256;2022-12-18T10:07:21;77905.59;;;22.65;34.54
20955;BME280;10636;19.390;-99.256;2022-12-18T10:09:59;77904.31;;;22.66;34.67
20955;BME280;10636;19.390;-99.256;2022-12-18T10:12:35;77907.59;;;22.65;34.57
20955;BME280;10636;19.390;-99.256;2022-12-18T10:15:16;77912.94;;;22.65;34.57
20955;BME280;10636;19.390;-99.256;2022-12-18T10:17:54;77913.63;;;22.65;34.19
20955;BME280;10636;19.390;-99.256;2022-12-18T10:20:32;77919.56;;;22.64;34.71
20955;BME280;10636;19.390;-99.256;2022-12-18T10:23:14;77922.84;;;22.62;34.45
20955;BME280;10636;19.390;-99.256;2022-12-18T10:25:50;77924.13;;;22.61;34.54
20955;BME280;10636;19.390;-99.256;2022-12-18T10:28:22;77917.41;;;22.60;34.78
20955;BME280;10636;19.390;-99.256;2022-12-18T10:30:51;77922.75;;;22.60;35.02
20955;BME280;10636;19.390;-99.256;2022-12-18T10:33:22;77919.91;;;22.56;34.85
20955;BME280;10636;19.390;-99.256;2022-12-18T10:35:52;77915.34;;;22.59;35.00
20955;BME280;10636;19.390;-99.256;2022-12-18T10:38:25;77920.00;;;22.58;34.88
20955;BME280;10636;19.390;-99.256;2022-12-18T10:40:56;77907.94;;;22.57;34.57
20955;BME280;10636;19.390;-99.256;2022-12-18T10:43:26;77911.88;;;22.56;34.31
20955;BME280;10636;19.390;-99.256;2022-12-18T10:46:02;77916.53;;;22.56;34.99
20955;BME280;10636;19.390;-99.256;2022-12-18T10:48:32;77910.50;;;22.55;34.31
20955;BME280;10636;19.390;-99.256;2022-12-18T10:51:02;77912.91;;;22.49;34.73
20955;BME280;10636;19.390;-99.256;2022-12-18T10:53:34;77916.53;;;22.56;34.21
20955;BME280;10636;19.390;-99.256;2022-12-18T10:56:05;77911.81;;;22.54;34.39
20955;BME280;10636;19.390;-99.256;2022-12-18T10:58:35;77916.47;;;22.54;35.11
20955;BME280;10636;19.390;-99.256;2022-12-18T11:01:08;77913.09;;;22.53;34.61
20955;BME280;10636;19.390;-99.256;2022-12-18T11:03:37;77913.78;;;22.54;35.05
20955;BME280;10636;19.390;-99.256;2022-12-18T11:06:09;77910.84;;;22.48;34.77
20955;BME280;10636;19.390;-99.256;2022-12-18T11:08:41;77920.16;;;22.47;35.09
20955;BME280;10636;19.390;-99.256;2022-12-18T11:11:19;77922.22;;;22.48;34.93
20955;BME280;10636;19.390;-99.256;2022-12-18T11:14:06;77920.31;;;22.51;34.36
20955;BME280;10636;19.390;-99.256;2022-12-18T11:16:37;77921.00;;;22.51;34.90
20955;BME280;10636;19.390;-99.256;2022-12-18T11:19:28;77924.97;;;22.50;34.27
20955;BME280;10636;19.390;-99.256;2022-12-18T11:21:58;77926.97;;;22.50;34.36
20955;BME280;10636;19.390;-99.256;2022-12-18T11:24:31;77926.28;;;22.49;34.80
20955;BME280;10636;19.390;-99.256;2022-12-18T11:27:02;77933.59;;;22.49;34.83
20955;BME280;10636;19.390;-99.256;2022-12-18T11:29:36;77937.56;;;22.48;34.85
20955;BME280;10636;19.390;-99.256;2022-12-18T11:32:25;77939.44;;;22.45;34.32
20955;BME280;10636;19.390;-99.256;2022-12-18T11:35:00;77936.09;;;22.44;35.00
20955;BME280;10636;19.390;-99.256;2022-12-18T11:37:31;77943.50;;;22.46;34.29
20955;BME280;10636;19.390;-99.256;2022-12-18T11:40:06;77948.75;;;22.44;34.57
20955;BME280;10636;19.390;-99.256;2022-12-18T11:42:41;77943.91;;;22.40;34.97
20955;BME280;10636;19.390;-99.256;2022-12-18T11:45:26;77963.41;;;22.43;34.87
20955;BME280;10636;19.390;-99.256;2022-12-18T11:48:00;77958.06;;;22.43;34.57
20955;BME280;10636;19.390;-99.256;2022-12-18T11:50:33;77967.28;;;22.40;34.97
20955;BME280;10636;19.390;-99.256;2022-12-18T11:53:11;77971.34;;;22.41;34.79
20955;BME280;10636;19.390;-99.256;2022-12-18T11:55:48;77964.44;;;22.36;34.66
20955;BME280;10636;19.390;-99.256;2022-12-18T11:58:27;77969.88;;;22.38;34.39
20955;BME280;10636;19.390;-99.256;2022-12-18T12:01:04;77969.78;;;22.36;35.37
20955;BME280;10636;19.390;-99.256;2022-12-18T12:04:00;77975.00;;;22.34;35.37
20955;BME280;10636;19.390;-99.256;2022-12-18T12:06:39;77975.63;;;22.32;34.69
20955;BME280;10636;19.390;-99.256;2022-12-18T12:09:19;77976.31;;;22.33;34.76
20955;BME280;10636;19.390;-99.256;2022-12-18T12:12:10;77980.97;;;22.32;35.44
20955;BME280;10636;19.390;-99.256;2022-12-18T12:14:50;77981.56;;;22.31;35.15
20955;BME280;10636;19.390;-99.256;2022-12-18T12:17:27;77991.53;;;22.30;34.81
20955;BME280;10636;19.390;-99.256;2022-12-18T12:20:04;77982.38;;;22.19;34.83
20955;BME280;10636;19.390;-99.256;2022-12-18T12:22:40;78002.16;;;22.28;35.35
20955;BME280;10636;19.390;-99.256;2022-12-18T12:25:28;77999.38;;;22.26;35.63
20955;BME280;10636;19.390;-99.256;2022-12-18T12:28:13;78000.69;;;22.25;35.63
20955;BME280;10636;19.390;-99.256;2022-12-18T12:30:53;78002.56;;;22.23;34.79
20955;BME280;10636;19.390;-99.256;2022-12-18T12:33:34;77997.81;;;22.21;34.75
20955;BME280;10636;19.390;-99.256;2022-12-18T12:36:10;77996.44;;;22.20;34.73
20955;BME280;10636;19.390;-99.256;2022-12-18T12:38:46;77998.41;;;22.19;35.43
20955;BME280;10636;19.390;-99.256;2022-12-18T12:41:19;77991.47;;;22.14;35.50
20955;BME280;10636;19.390;-99.256;2022-12-18T12:44:14;78002.28;;;22.16;35.34
20955;BME280;10636;19.390;-99.256;2022-12-18T12:46:47;78007.63;;;22.16;35.10
20955;BME280;10636;19.390;-99.256;2022-12-18T12:49:19;78014.34;;;22.17;35.27
20955;BME280;10636;19.390;-99.256;2022-12-18T12:51:55;78014.34;;;22.17;35.10
20955;BME280;10636;19.390;-99.256;2022-12-18T12:54:26;78007.63;;;22.16;35.12
20955;BME280;10636;19.390;-99.256;2022-12-18T12:57:00;78004.84;;;22.14;34.95
20955;BME280;10636;19.390;-99.256;2022-12-18T12:59:39;78006.13;;;22.13;35.20
20955;BME280;10636;19.390;-99.256;2022-12-18T13:02:16;78004.44;;;22.06;34.91
20955;BME280;10636;19.390;-99.256;2022-12-18T13:04:49;78011.38;;;22.11;34.70